sensor_id;sensor_type;location;lat;lon;timestamp;P1;durP1;ratioP1;P2;durP2;ratioP2
12784;SDS011;6456;42.680;23.260;2024-03-23T00:54:52;15.30;;;9.20;;
12784;SDS011;6456;42.680;23.260;2024-03-23T00:57:20;13.03;;;9.60;;
12784;SDS011;6456;42.680;23.260;2024-03-23T00:59:46;13.10;;;9.23;;
12784;SDS011;6456;42.680;23.260;2024-03-23T01:02:13;13.63;;;8.53;;
12784;SDS011;6456;42.680;23.260;2024-03-23T01:04:39;12.17;;;9.27;;
12784;SDS011;6456;42.680;23.260;2024-03-23T01:07:06;14.10;;;9.53;;
12784;SDS011;6456;42.680;23.260;2024-03-23T01:09:32;13.77;;;9.97;;
12784;SDS011;6456;42.680;23.260;2024-03-23T01:12:00;13.63;;;9.30;;
12784;SDS011;6456;42.680;23.260;2024-03-23T01:14:27;15.33;;;9.67;;
12784;SDS011;6456;42.680;23.260;2024-03-23T01:16:54;10.70;;;8.30;;
12784;SDS011;6456;42.680;23.260;2024-03-23T01:19:20;11.70;;;8.93;;
12784;SDS011;6456;42.680;23.260;2024-03-23T01:21:47;12.90;;;8.90;;
12784;SDS011;6456;42.680;23.260;2024-03-23T01:24:14;15.97;;;9.67;;
12784;SDS011;6456;42.680;23.260;2024-03-23T01:26:41;16.23;;;9.90;;
12784;SDS011;6456;42.680;23.260;2024-03-23T01:29:08;19.87;;;10.50;;
12784;SDS011;6456;42.680;23.260;2024-03-23T01:31:36;17.40;;;10.70;;
12784;SDS011;6456;42.680;23.260;2024-03-23T01:34:02;16.97;;;10.90;;
12784;SDS011;6456;42.680;23.260;2024-03-23T01:36:29;21.47;;;10.90;;
12784;SDS011;6456;42.680;23.260;2024-03-23T01:38:55;21.23;;;12.27;;
12784;SDS011;6456;42.680;23.260;2024-03-23T01:41:23;15.63;;;10.43;;
12784;SDS011;6456;42.680;23.260;2024-03-23T01:43:49;18.73;;;12.17;;
12784;SDS011;6456;42.680;23.260;2024-03-23T01:46:18;16.30;;;11.00;;
12784;SDS011;6456;42.680;23.260;2024-03-23T01:48:44;19.03;;;11.20;;
12784;SDS011;6456;42.680;23.260;2024-03-23T01:51:12;20.47;;;11.33;;
12784;SDS011;6456;42.680;23.260;2024-03-23T01:53:38;17.10;;;10.83;;
12784;SDS011;6456;42.680;23.260;2024-03-23T01:56:05;16.30;;;10.53;;
12784;SDS011;6456;42.680;23.260;2024-03-23T01:58:32;13.73;;;10.03;;
12784;SDS011;6456;42.680;23.260;2024-03-23T02:00:59;13.77;;;9.73;;
12784;SDS011;6456;42.680;23.260;2024-03-23T02:03:27;16.73;;;9.00;;
12784;SDS011;6456;42.680;23.260;2024-03-23T02:05:54;13.00;;;9.40;;
12784;SDS011;6456;42.680;23.260;2024-03-23T02:08:22;17.37;;;10.10;;
12784;SDS011;6456;42.680;23.260;2024-03-23T02:10:49;17.60;;;9.80;;
12784;SDS011;6456;42.680;23.260;2024-03-23T02:13:16;17.27;;;10.93;;
12784;SDS011;6456;42.680;23.260;2024-03-23T02:15:44;16.80;;;9.70;;
12784;SDS011;6456;42.680;23.260;2024-03-23T02:18:10;14.17;;;10.37;;
12784;SDS011;6456;42.680;23.260;2024-03-23T02:20:38;17.27;;;10.50;;
12784;SDS011;6456;42.680;23.260;2024-03-23T02:23:06;17.40;;;11.07;;
12784;SDS011;6456;42.680;23.260;2024-03-23T02:25:39;14.33;;;9.80;;
12784;SDS011;6456;42.680;23.260;2024-03-23T02:28:05;16.07;;;10.43;;
12784;SDS011;6456;42.680;23.260;2024-03-23T02:30:33;18.60;;;10.50;;
12784;SDS011;6456;42.680;23.260;2024-03-23T02:32:59;13.13;;;9.90;;
12784;SDS011;6456;42.680;23.260;2024-03-23T02:35:26;16.90;;;10.40;;
12784;SDS011;6456;42.680;23.260;2024-03-23T02:37:52;16.03;;;10.90;;
12784;SDS011;6456;42.680;23.260;2024-03-23T02:40:22;17.00;;;10.23;;
12784;SDS011;6456;42.680;23.260;2024-03-23T02:42:49;28.13;;;11.63;;
12784;SDS011;6456;42.680;23.260;2024-03-23T02:45:16;15.17;;;9.93;;
12784;SDS011;6456;42.680;23.260;2024-03-23T02:47:42;17.63;;;10.57;;
12784;SDS011;6456;42.680;23.260;2024-03-23T02:50:09;19.77;;;11.20;;
12784;SDS011;6456;42.680;23.260;2024-03-23T02:52:35;22.63;;;12.37;;
12784;SDS011;6456;42.680;23.260;2024-03-23T02:55:02;12.90;;;9.93;;
12784;SDS011;6456;42.680;23.260;2024-03-23T02:57:31;14.37;;;10.33;;
12784;SDS011;6456;42.680;23.260;2024-03-23T02:59:58;19.27;;;10.63;;
12784;SDS011;6456;42.680;23.260;2024-03-23T03:02:24;17.43;;;10.60;;
12784;SDS011;6456;42.680;23.260;2024-03-23T03:04:51;18.70;;;11.83;;
12784;SDS011;6456;42.680;23.260;2024-03-23T03:07:17;15.20;;;11.00;;
12784;SDS011;6456;42.680;23.260;2024-03-23T03:09:44;17.33;;;10.77;;
12784;SDS011;6456;42.680;23.260;2024-03-23T03:12:10;18.43;;;10.80;;
12784;SDS011;6456;42.680;23.260;2024-03-23T03:14:38;13.43;;;10.07;;
12784;SDS011;6456;42.680;23.260;2024-03-23T03:17:04;14.17;;;10.10;;
12784;SDS011;6456;42.680;23.260;2024-03-23T03:22:20;12.43;;;8.93;;
12784;SDS011;6456;42.680;23.260;2024-03-23T03:24:47;15.87;;;8.90;;
12784;SDS011;6456;42.680;23.260;2024-03-23T03:27:13;11.87;;;8.87;;
12784;SDS011;6456;42.680;23.260;2024-03-23T03:29:42;12.27;;;8.57;;
12784;SDS011;6456;42.680;23.260;2024-03-23T03:32:08;12.10;;;8.57;;
12784;SDS011;6456;42.680;23.260;2024-03-23T03:34:35;12.17;;;8.43;;
12784;SDS011;6456;42.680;23.260;2024-03-23T03:37:01;13.30;;;9.30;;
12784;SDS011;6456;42.680;23.260;2024-03-23T03:39:28;12.73;;;9.13;;
12784;SDS011;6456;42.680;23.260;2024-03-23T03:41:54;18.53;;;11.80;;
12784;SDS011;6456;42.680;23.260;2024-03-23T03:44:21;16.20;;;11.00;;
12784;SDS011;6456;42.680;23.260;2024-03-23T03:46:48;16.30;;;11.33;;
12784;SDS011;6456;42.680;23.260;2024-03-23T03:49:15;25.23;;;14.53;;
12784;SDS011;6456;42.680;23.260;2024-03-23T03:51:41;30.33;;;15.70;;
12784;SDS011;6456;42.680;23.260;2024-03-23T03:54:08;20.13;;;13.40;;
12784;SDS011;6456;42.680;23.260;2024-03-23T03:56:34;25.17;;;14.63;;
12784;SDS011;6456;42.680;23.260;2024-03-23T03:59:01;20.50;;;12.23;;
12784;SDS011;6456;42.680;23.260;2024-03-23T04:01:27;22.60;;;13.23;;
12784;SDS011;6456;42.680;23.260;2024-03-23T04:03:55;17.43;;;11.73;;
12784;SDS011;6456;42.680;23.260;2024-03-23T04:06:21;15.70;;;11.00;;
12784;SDS011;6456;42.680;23.260;2024-03-23T04:08:48;17.03;;;11.20;;
12784;SDS011;6456;42.680;23.260;2024-03-23T04:11:15;19.17;;;8.87;;
12784;SDS011;6456;42.680;23.260;2024-03-23T04:13:41;14.60;;;9.63;;
12784;SDS011;6456;42.680;23.260;2024-03-23T04:16:08;15.27;;;10.27;;
12784;SDS011;6456;42.680;23.260;2024-03-23T04:18:34;19.13;;;12.13;;
12784;SDS011;6456;42.680;23.260;2024-03-23T04:21:03;16.77;;;11.10;;
12784;SDS011;6456;42.680;23.260;2024-03-23T04:23:29;19.70;;;11.10;;
12784;SDS011;6456;42.680;23.260;2024-03-23T04:26:02;17.30;;;11.17;;
12784;SDS011;6456;42.680;23.260;2024-03-23T04:28:29;19.63;;;11.20;;
12784;SDS011;6456;42.680;23.260;2024-03-23T04:30:56;14.43;;;10.50;;
12784;SDS011;6456;42.680;23.260;2024-03-23T04:33:22;16.80;;;10.97;;
12784;SDS011;6456;42.680;23.260;2024-03-23T04:35:49;16.40;;;11.47;;
12784;SDS011;6456;42.680;23.260;2024-03-23T04:38:16;14.60;;;10.13;;
12784;SDS011;6456;42.680;23.260;2024-03-23T04:40:44;17.57;;;10.03;;
12784;SDS011;6456;42.680;23.260;2024-03-23T04:43:11;13.63;;;9.30;;
12784;SDS011;6456;42.680;23.260;2024-03-23T04:45:38;17.90;;;9.63;;
12784;SDS011;6456;42.680;23.260;2024-03-23T04:48:06;16.10;;;10.60;;
12784;SDS011;6456;42.680;23.260;2024-03-23T04:50:33;16.70;;;9.37;;
12784;SDS011;6456;42.680;23.260;2024-03-23T04:53:00;11.70;;;9.30;;
12784;SDS011;6456;42.680;23.260;2024-03-23T04:55:29;13.57;;;9.27;;
12784;SDS011;6456;42.680;23.260;2024-03-23T04:57:57;13.70;;;8.90;;
12784;SDS011;6456;42.680;23.260;2024-03-23T05:00:23;11.85;;;8.90;;
12784;SDS011;6456;42.680;23.260;2024-03-23T05:02:51;14.70;;;8.87;;
12784;SDS011;6456;42.680;23.260;2024-03-23T05:05:18;17.33;;;10.00;;
12784;SDS011;6456;42.680;23.260;2024-03-23T05:07:45;16.97;;;9.13;;
12784;SDS011;6456;42.680;23.260;2024-03-23T05:10:12;15.93;;;9.60;;
12784;SDS011;6456;42.680;23.260;2024-03-23T05:12:40;16.23;;;9.93;;
12784;SDS011;6456;42.680;23.260;2024-03-23T05:15:07;18.77;;;10.30;;
12784;SDS011;6456;42.680;23.260;2024-03-23T05:17:33;17.90;;;10.13;;
12784;SDS011;6456;42.680;23.260;2024-03-23T05:20:01;19.83;;;10.93;;
12784;SDS011;6456;42.680;23.260;2024-03-23T05:22:28;15.37;;;9.63;;
12784;SDS011;6456;42.680;23.260;2024-03-23T05:24:56;20.50;;;10.30;;
12784;SDS011;6456;42.680;23.260;2024-03-23T05:27:22;14.03;;;10.13;;
12784;SDS011;6456;42.680;23.260;2024-03-23T05:29:50;15.73;;;9.43;;
12784;SDS011;6456;42.680;23.260;2024-03-23T05:32:16;17.50;;;9.33;;
12784;SDS011;6456;42.680;23.260;2024-03-23T05:34:43;15.50;;;8.77;;
12784;SDS011;6456;42.680;23.260;2024-03-23T05:37:09;11.20;;;8.37;;
12784;SDS011;6456;42.680;23.260;2024-03-23T05:39:36;11.67;;;8.47;;
12784;SDS011;6456;42.680;23.260;2024-03-23T05:42:03;14.30;;;9.27;;
12784;SDS011;6456;42.680;23.260;2024-03-23T05:44:30;14.87;;;9.40;;
12784;SDS011;6456;42.680;23.260;2024-03-23T05:46:58;13.83;;;9.57;;
12784;SDS011;6456;42.680;23.260;2024-03-23T05:49:25;16.77;;;9.70;;
12784;SDS011;6456;42.680;23.260;2024-03-23T05:51:51;16.80;;;10.10;;
12784;SDS011;6456;42.680;23.260;2024-03-23T05:54:18;16.53;;;10.30;;
12784;SDS011;6456;42.680;23.260;2024-03-23T05:56:44;15.23;;;10.67;;
12784;SDS011;6456;42.680;23.260;2024-03-23T05:59:11;20.33;;;11.03;;
12784;SDS011;6456;42.680;23.260;2024-03-23T06:01:37;16.10;;;10.33;;
12784;SDS011;6456;42.680;23.260;2024-03-23T06:04:06;15.83;;;9.70;;
12784;SDS011;6456;42.680;23.260;2024-03-23T06:06:32;13.50;;;9.63;;
12784;SDS011;6456;42.680;23.260;2024-03-23T06:08:59;14.03;;;9.47;;
12784;SDS011;6456;42.680;23.260;2024-03-23T06:11:25;13.83;;;9.33;;
12784;SDS011;6456;42.680;23.260;2024-03-23T06:13:52;13.47;;;9.67;;
12784;SDS011;6456;42.680;23.260;2024-03-23T06:16:18;21.57;;;10.83;;
12784;SDS011;6456;42.680;23.260;2024-03-23T06:18:48;13.73;;;9.47;;
12784;SDS011;6456;42.680;23.260;2024-03-23T06:21:16;16.10;;;10.03;;
12784;SDS011;6456;42.680;23.260;2024-03-23T06:23:43;15.60;;;10.73;;
12784;SDS011;6456;42.680;23.260;2024-03-23T06:28:51;16.70;;;11.33;;
12784;SDS011;6456;42.680;23.260;2024-03-23T06:31:18;16.80;;;11.50;;
12784;SDS011;6456;42.680;23.260;2024-03-23T06:33:44;15.57;;;12.13;;
12784;SDS011;6456;42.680;23.260;2024-03-23T06:39:38;23.43;;;11.90;;
12784;SDS011;6456;42.680;23.260;2024-03-23T06:42:05;19.23;;;11.37;;
12784;SDS011;6456;42.680;23.260;2024-03-23T06:44:33;17.43;;;12.37;;
12784;SDS011;6456;42.680;23.260;2024-03-23T06:47:01;24.00;;;13.23;;
12784;SDS011;6456;42.680;23.260;2024-03-23T06:49:28;27.07;;;12.70;;
12784;SDS011;6456;42.680;23.260;2024-03-23T06:51:55;16.47;;;11.27;;
12784;SDS011;6456;42.680;23.260;2024-03-23T06:54:21;15.87;;;12.00;;
12784;SDS011;6456;42.680;23.260;2024-03-23T06:56:49;18.60;;;11.73;;
12784;SDS011;6456;42.680;23.260;2024-03-23T06:59:15;15.30;;;10.13;;
12784;SDS011;6456;42.680;23.260;2024-03-23T07:01:43;15.03;;;10.53;;
12784;SDS011;6456;42.680;23.260;2024-03-23T07:04:08;15.70;;;10.97;;
12784;SDS011;6456;42.680;23.260;2024-03-23T07:06:41;17.07;;;10.87;;
12784;SDS011;6456;42.680;23.260;2024-03-23T07:09:08;15.90;;;9.93;;
12784;SDS011;6456;42.680;23.260;2024-03-23T07:11:36;14.77;;;9.10;;
12784;SDS011;6456;42.680;23.260;2024-03-23T07:14:03;13.23;;;8.73;;
12784;SDS011;6456;42.680;23.260;2024-03-23T07:16:30;13.90;;;8.57;;
12784;SDS011;6456;42.680;23.260;2024-03-23T07:18:56;11.60;;;8.13;;
12784;SDS011;6456;42.680;23.260;2024-03-23T07:21:23;17.93;;;9.50;;
12784;SDS011;6456;42.680;23.260;2024-03-23T07:23:49;16.73;;;8.70;;
12784;SDS011;6456;42.680;23.260;2024-03-23T07:26:16;13.50;;;8.70;;
12784;SDS011;6456;42.680;23.260;2024-03-23T07:28:44;12.27;;;9.10;;
12784;SDS011;6456;42.680;23.260;2024-03-23T07:31:13;11.93;;;8.60;;
12784;SDS011;6456;42.680;23.260;2024-03-23T07:33:41;17.13;;;9.17;;
12784;SDS011;6456;42.680;23.260;2024-03-23T07:36:09;14.53;;;8.60;;
12784;SDS011;6456;42.680;23.260;2024-03-23T07:38:36;12.17;;;8.53;;
12784;SDS011;6456;42.680;23.260;2024-03-23T07:41:03;14.13;;;8.97;;
12784;SDS011;6456;42.680;23.260;2024-03-23T07:43:30;27.53;;;11.53;;
12784;SDS011;6456;42.680;23.260;2024-03-23T07:45:57;12.90;;;9.13;;
12784;SDS011;6456;42.680;23.260;2024-03-23T07:48:25;18.20;;;9.70;;
12784;SDS011;6456;42.680;23.260;2024-03-23T07:50:59;14.60;;;8.93;;
12784;SDS011;6456;42.680;23.260;2024-03-23T07:53:26;15.27;;;9.13;;
12784;SDS011;6456;42.680;23.260;2024-03-23T07:55:56;20.73;;;10.00;;
12784;SDS011;6456;42.680;23.260;2024-03-23T07:58:23;20.90;;;9.97;;
12784;SDS011;6456;42.680;23.260;2024-03-23T08:00:51;15.00;;;9.53;;
12784;SDS011;6456;42.680;23.260;2024-03-23T08:03:18;13.57;;;9.73;;
12784;SDS011;6456;42.680;23.260;2024-03-23T08:05:46;15.57;;;10.40;;
12784;SDS011;6456;42.680;23.260;2024-03-23T08:08:13;14.93;;;9.97;;
12784;SDS011;6456;42.680;23.260;2024-03-23T08:10:49;12.43;;;9.20;;
12784;SDS011;6456;42.680;23.260;2024-03-23T08:13:15;22.50;;;10.37;;
12784;SDS011;6456;42.680;23.260;2024-03-23T08:15:43;27.67;;;10.73;;
12784;SDS011;6456;42.680;23.260;2024-03-23T08:18:09;16.10;;;9.33;;
12784;SDS011;6456;42.680;23.260;2024-03-23T08:20:37;18.23;;;9.57;;
12784;SDS011;6456;42.680;23.260;2024-03-23T08:23:04;18.20;;;10.13;;
12784;SDS011;6456;42.680;23.260;2024-03-23T08:25:32;20.10;;;10.93;;
12784;SDS011;6456;42.680;23.260;2024-03-23T08:27:58;19.13;;;10.10;;
12784;SDS011;6456;42.680;23.260;2024-03-23T08:30:25;18.23;;;9.73;;
12784;SDS011;6456;42.680;23.260;2024-03-23T08:32:52;18.13;;;10.93;;
12784;SDS011;6456;42.680;23.260;2024-03-23T08:35:19;14.60;;;9.57;;
12784;SDS011;6456;42.680;23.260;2024-03-23T08:37:45;22.73;;;11.10;;
12784;SDS011;6456;42.680;23.260;2024-03-23T08:40:13;15.27;;;10.77;;
12784;SDS011;6456;42.680;23.260;2024-03-23T08:42:39;15.93;;;9.90;;
12784;SDS011;6456;42.680;23.260;2024-03-23T08:45:07;14.93;;;10.10;;
12784;SDS011;6456;42.680;23.260;2024-03-23T08:47:34;13.00;;;10.03;;
12784;SDS011;6456;42.680;23.260;2024-03-23T08:50:02;15.43;;;10.53;;
12784;SDS011;6456;42.680;23.260;2024-03-23T08:52:28;13.83;;;10.30;;
12784;SDS011;6456;42.680;23.260;2024-03-23T08:54:55;18.67;;;10.90;;
12784;SDS011;6456;42.680;23.260;2024-03-23T08:57:22;19.77;;;10.93;;
12784;SDS011;6456;42.680;23.260;2024-03-23T08:59:50;19.83;;;10.80;;
12784;SDS011;6456;42.680;23.260;2024-03-23T09:02:16;18.63;;;9.73;;
12784;SDS011;6456;42.680;23.260;2024-03-23T09:04:43;12.23;;;9.37;;
12784;SDS011;6456;42.680;23.260;2024-03-23T09:07:10;13.50;;;10.10;;
12784;SDS011;6456;42.680;23.260;2024-03-23T09:09:38;12.67;;;9.90;;
12784;SDS011;6456;42.680;23.260;2024-03-23T09:12:04;16.50;;;11.03;;
12784;SDS011;6456;42.680;23.260;2024-03-23T09:14:33;15.50;;;10.00;;
12784;SDS011;6456;42.680;23.260;2024-03-23T09:16:59;13.27;;;9.60;;
12784;SDS011;6456;42.680;23.260;2024-03-23T09:19:27;15.67;;;10.53;;
12784;SDS011;6456;42.680;23.260;2024-03-23T09:21:58;16.67;;;9.67;;
12784;SDS011;6456;42.680;23.260;2024-03-23T09:24:26;16.40;;;9.87;;
12784;SDS011;6456;42.680;23.260;2024-03-23T09:26:57;13.30;;;9.43;;
12784;SDS011;6456;42.680;23.260;2024-03-23T09:29:25;13.87;;;9.67;;
12784;SDS011;6456;42.680;23.260;2024-03-23T09:31:52;12.00;;;8.37;;
12784;SDS011;6456;42.680;23.260;2024-03-23T09:34:23;15.70;;;9.60;;
12784;SDS011;6456;42.680;23.260;2024-03-23T09:36:51;11.27;;;8.37;;
12784;SDS011;6456;42.680;23.260;2024-03-23T09:39:18;15.43;;;9.23;;
12784;SDS011;6456;42.680;23.260;2024-03-23T09:41:44;16.50;;;8.73;;
12784;SDS011;6456;42.680;23.260;2024-03-23T09:44:12;11.60;;;9.43;;
12784;SDS011;6456;42.680;23.260;2024-03-23T09:46:42;19.37;;;9.73;;
12784;SDS011;6456;42.680;23.260;2024-03-23T09:49:10;15.53;;;10.77;;
12784;SDS011;6456;42.680;23.260;2024-03-23T09:51:37;14.17;;;9.13;;
12784;SDS011;6456;42.680;23.260;2024-03-23T09:54:03;15.33;;;9.60;;
12784;SDS011;6456;42.680;23.260;2024-03-23T09:56:30;13.60;;;9.13;;
12784;SDS011;6456;42.680;23.260;2024-03-23T09:59:02;13.57;;;8.67;;
12784;SDS011;6456;42.680;23.260;2024-03-23T10:01:30;13.80;;;9.23;;
12784;SDS011;6456;42.680;23.260;2024-03-23T10:03:56;11.87;;;9.23;;
12784;SDS011;6456;42.680;23.260;2024-03-23T10:06:24;14.93;;;8.07;;
12784;SDS011;6456;42.680;23.260;2024-03-23T10:08:53;13.07;;;8.30;;
12784;SDS011;6456;42.680;23.260;2024-03-23T10:11:20;11.07;;;7.83;;
12784;SDS011;6456;42.680;23.260;2024-03-23T10:13:46;13.80;;;8.77;;
12784;SDS011;6456;42.680;23.260;2024-03-23T10:16:20;15.57;;;8.97;;
12784;SDS011;6456;42.680;23.260;2024-03-23T10:18:47;13.17;;;8.07;;
12784;SDS011;6456;42.680;23.260;2024-03-23T10:21:15;12.33;;;8.17;;
12784;SDS011;6456;42.680;23.260;2024-03-23T10:23:43;12.93;;;8.53;;
12784;SDS011;6456;42.680;23.260;2024-03-23T10:26:15;16.93;;;9.20;;
12784;SDS011;6456;42.680;23.260;2024-03-23T10:28:52;13.37;;;8.60;;
12784;SDS011;6456;42.680;23.260;2024-03-23T10:31:22;13.17;;;9.20;;
12784;SDS011;6456;42.680;23.260;2024-03-23T10:33:48;12.20;;;8.70;;
12784;SDS011;6456;42.680;23.260;2024-03-23T10:36:26;10.57;;;8.80;;
12784;SDS011;6456;42.680;23.260;2024-03-23T10:38:53;9.23;;;7.13;;
12784;SDS011;6456;42.680;23.260;2024-03-23T10:41:24;11.47;;;7.63;;
12784;SDS011;6456;42.680;23.260;2024-03-23T10:43:52;14.30;;;8.27;;
12784;SDS011;6456;42.680;23.260;2024-03-23T10:46:22;16.07;;;8.20;;
12784;SDS011;6456;42.680;23.260;2024-03-23T10:48:49;10.10;;;8.00;;
12784;SDS011;6456;42.680;23.260;2024-03-23T10:51:16;11.77;;;8.40;;
12784;SDS011;6456;42.680;23.260;2024-03-23T10:53:45;12.17;;;8.13;;
12784;SDS011;6456;42.680;23.260;2024-03-23T10:56:18;13.83;;;9.20;;
12784;SDS011;6456;42.680;23.260;2024-03-23T10:58:47;11.23;;;8.13;;
12784;SDS011;6456;42.680;23.260;2024-03-23T11:01:15;13.87;;;8.20;;
12784;SDS011;6456;42.680;23.260;2024-03-23T11:03:44;9.57;;;7.17;;
12784;SDS011;6456;42.680;23.260;2024-03-23T11:06:33;11.17;;;6.80;;
12784;SDS011;6456;42.680;23.260;2024-03-23T11:09:01;11.73;;;6.30;;
12784;SDS011;6456;42.680;23.260;2024-03-23T11:11:29;13.83;;;6.97;;
12784;SDS011;6456;42.680;23.260;2024-03-23T11:13:57;10.37;;;6.73;;
12784;SDS011;6456;42.680;23.260;2024-03-23T11:16:24;9.00;;;6.40;;
12784;SDS011;6456;42.680;23.260;2024-03-23T11:18:53;10.00;;;6.20;;
12784;SDS011;6456;42.680;23.260;2024-03-23T11:24:17;7.87;;;4.70;;
12784;SDS011;6456;42.680;23.260;2024-03-23T11:26:47;9.17;;;5.20;;
12784;SDS011;6456;42.680;23.260;2024-03-23T11:29:14;6.20;;;5.30;;
12784;SDS011;6456;42.680;23.260;2024-03-23T11:31:45;7.67;;;5.43;;
12784;SDS011;6456;42.680;23.260;2024-03-23T11:34:12;11.10;;;5.33;;
12784;SDS011;6456;42.680;23.260;2024-03-23T11:36:39;6.70;;;5.47;;
12784;SDS011;6456;42.680;23.260;2024-03-23T11:39:15;9.63;;;5.47;;
12784;SDS011;6456;42.680;23.260;2024-03-23T11:41:47;9.47;;;4.93;;
12784;SDS011;6456;42.680;23.260;2024-03-23T11:44:14;10.43;;;5.00;;
12784;SDS011;6456;42.680;23.260;2024-03-23T11:46:42;12.50;;;5.10;;
12784;SDS011;6456;42.680;23.260;2024-03-23T11:49:19;9.83;;;5.43;;
12784;SDS011;6456;42.680;23.260;2024-03-23T11:51:47;9.17;;;5.67;;
12784;SDS011;6456;42.680;23.260;2024-03-23T11:54:13;6.77;;;4.63;;
12784;SDS011;6456;42.680;23.260;2024-03-23T11:56:55;12.50;;;5.10;;
12784;SDS011;6456;42.680;23.260;2024-03-23T11:59:31;7.53;;;4.43;;
12784;SDS011;6456;42.680;23.260;2024-03-23T12:01:59;4.80;;;3.60;;
12784;SDS011;6456;42.680;23.260;2024-03-23T12:04:34;4.50;;;1.87;;
12784;SDS011;6456;42.680;23.260;2024-03-23T12:07:14;1.50;;;1.40;;
12784;SDS011;6456;42.680;23.260;2024-03-23T12:09:45;1.93;;;1.83;;
12784;SDS011;6456;42.680;23.260;2024-03-23T12:12:17;3.37;;;2.10;;
12784;SDS011;6456;42.680;23.260;2024-03-23T12:14:44;3.20;;;1.80;;
12784;SDS011;6456;42.680;23.260;2024-03-23T12:17:26;1.53;;;1.43;;
12784;SDS011;6456;42.680;23.260;2024-03-23T12:19:52;2.60;;;1.50;;
12784;SDS011;6456;42.680;23.260;2024-03-23T12:22:20;1.77;;;1.60;;
12784;SDS011;6456;42.680;23.260;2024-03-23T12:24:47;2.90;;;1.60;;
12784;SDS011;6456;42.680;23.260;2024-03-23T12:27:14;4.40;;;1.23;;
12784;SDS011;6456;42.680;23.260;2024-03-23T12:29:42;1.20;;;1.10;;
12784;SDS011;6456;42.680;23.260;2024-03-23T12:32:12;1.87;;;1.20;;
12784;SDS011;6456;42.680;23.260;2024-03-23T12:34:41;4.23;;;1.40;;
12784;SDS011;6456;42.680;23.260;2024-03-23T12:37:09;1.83;;;1.63;;
12784;SDS011;6456;42.680;23.260;2024-03-23T12:39:35;1.33;;;1.23;;
12784;SDS011;6456;42.680;23.260;2024-03-23T12:42:05;1.20;;;1.10;;
12784;SDS011;6456;42.680;23.260;2024-03-23T12:44:33;1.13;;;1.10;;
12784;SDS011;6456;42.680;23.260;2024-03-23T12:47:00;2.10;;;1.10;;
12784;SDS011;6456;42.680;23.260;2024-03-23T12:49:26;1.27;;;1.10;;
12784;SDS011;6456;42.680;23.260;2024-03-23T12:51:54;1.60;;;1.50;;
12784;SDS011;6456;42.680;23.260;2024-03-23T12:54:21;1.67;;;1.57;;
12784;SDS011;6456;42.680;23.260;2024-03-23T12:56:48;1.63;;;1.50;;
12784;SDS011;6456;42.680;23.260;2024-03-23T12:59:16;5.50;;;1.40;;
12784;SDS011;6456;42.680;23.260;2024-03-23T13:01:45;5.20;;;1.57;;
12784;SDS011;6456;42.680;23.260;2024-03-23T13:04:11;3.10;;;1.30;;
12784;SDS011;6456;42.680;23.260;2024-03-23T13:06:38;1.30;;;1.20;;
12784;SDS011;6456;42.680;23.260;2024-03-23T13:09:07;4.20;;;1.40;;
12784;SDS011;6456;42.680;23.260;2024-03-23T13:11:34;3.47;;;1.70;;
12784;SDS011;6456;42.680;23.260;2024-03-23T13:14:00;2.13;;;1.40;;
12784;SDS011;6456;42.680;23.260;2024-03-23T13:16:29;1.80;;;1.30;;
12784;SDS011;6456;42.680;23.260;2024-03-23T13:18:56;1.33;;;1.10;;
12784;SDS011;6456;42.680;23.260;2024-03-23T13:21:23;1.40;;;1.30;;
12784;SDS011;6456;42.680;23.260;2024-03-23T13:23:49;1.70;;;1.30;;
12784;SDS011;6456;42.680;23.260;2024-03-23T13:26:16;1.57;;;1.47;;
12784;SDS011;6456;42.680;23.260;2024-03-23T13:28:42;1.50;;;1.40;;
12784;SDS011;6456;42.680;23.260;2024-03-23T13:31:09;2.97;;;1.50;;
12784;SDS011;6456;42.680;23.260;2024-03-23T13:33:37;3.20;;;1.50;;
12784;SDS011;6456;42.680;23.260;2024-03-23T13:36:06;3.20;;;1.60;;
12784;SDS011;6456;42.680;23.260;2024-03-23T13:38:33;1.50;;;1.40;;
12784;SDS011;6456;42.680;23.260;2024-03-23T13:41:00;1.87;;;1.60;;
12784;SDS011;6456;42.680;23.260;2024-03-23T13:43:27;3.27;;;1.60;;
12784;SDS011;6456;42.680;23.260;2024-03-23T13:45:55;4.57;;;2.77;;
12784;SDS011;6456;42.680;23.260;2024-03-23T13:48:22;2.03;;;1.87;;
12784;SDS011;6456;42.680;23.260;2024-03-23T13:50:57;4.13;;;1.70;;
12784;SDS011;6456;42.680;23.260;2024-03-23T13:53:25;1.67;;;1.50;;
12784;SDS011;6456;42.680;23.260;2024-03-23T13:55:56;3.17;;;1.63;;
12784;SDS011;6456;42.680;23.260;2024-03-23T13:58:22;4.10;;;1.80;;
12784;SDS011;6456;42.680;23.260;2024-03-23T14:00:50;5.50;;;2.27;;
12784;SDS011;6456;42.680;23.260;2024-03-23T14:03:16;3.80;;;2.00;;
12784;SDS011;6456;42.680;23.260;2024-03-23T14:05:44;3.47;;;1.87;;
12784;SDS011;6456;42.680;23.260;2024-03-23T14:08:12;1.73;;;1.63;;
12784;SDS011;6456;42.680;23.260;2024-03-23T14:10:41;2.40;;;2.07;;
12784;SDS011;6456;42.680;23.260;2024-03-23T14:13:08;3.13;;;2.10;;
12784;SDS011;6456;42.680;23.260;2024-03-23T14:15:35;2.27;;;2.07;;
12784;SDS011;6456;42.680;23.260;2024-03-23T14:18:02;20.27;;;2.93;;
12784;SDS011;6456;42.680;23.260;2024-03-23T14:20:29;4.73;;;2.43;;
12784;SDS011;6456;42.680;23.260;2024-03-23T14:22:56;2.23;;;2.03;;
12784;SDS011;6456;42.680;23.260;2024-03-23T14:25:22;5.87;;;2.33;;
12784;SDS011;6456;42.680;23.260;2024-03-23T14:27:53;3.83;;;2.40;;
12784;SDS011;6456;42.680;23.260;2024-03-23T14:30:20;2.40;;;1.97;;
12784;SDS011;6456;42.680;23.260;2024-03-23T14:32:47;4.97;;;2.50;;
12784;SDS011;6456;42.680;23.260;2024-03-23T14:35:13;2.07;;;1.90;;
12784;SDS011;6456;42.680;23.260;2024-03-23T14:37:40;3.67;;;2.07;;
12784;SDS011;6456;42.680;23.260;2024-03-23T14:40:07;3.20;;;2.23;;
12784;SDS011;6456;42.680;23.260;2024-03-23T14:42:36;3.17;;;2.40;;
12784;SDS011;6456;42.680;23.260;2024-03-23T14:45:04;2.80;;;2.00;;
12784;SDS011;6456;42.680;23.260;2024-03-23T14:47:32;2.87;;;2.30;;
12784;SDS011;6456;42.680;23.260;2024-03-23T14:49:58;4.53;;;2.47;;
12784;SDS011;6456;42.680;23.260;2024-03-23T14:52:26;3.33;;;2.40;;
12784;SDS011;6456;42.680;23.260;2024-03-23T14:54:52;13.50;;;3.33;;
12784;SDS011;6456;42.680;23.260;2024-03-23T14:57:21;6.00;;;3.03;;
12784;SDS011;6456;42.680;23.260;2024-03-23T14:59:47;3.47;;;2.70;;
12784;SDS011;6456;42.680;23.260;2024-03-23T15:02:16;5.13;;;3.00;;
12784;SDS011;6456;42.680;23.260;2024-03-23T15:04:42;2.47;;;2.27;;
12784;SDS011;6456;42.680;23.260;2024-03-23T15:07:09;5.63;;;2.93;;
12784;SDS011;6456;42.680;23.260;2024-03-23T15:09:35;2.83;;;2.47;;
12784;SDS011;6456;42.680;23.260;2024-03-23T15:12:02;3.27;;;2.27;;
12784;SDS011;6456;42.680;23.260;2024-03-23T15:14:29;2.77;;;2.50;;
12784;SDS011;6456;42.680;23.260;2024-03-23T15:16:56;4.50;;;2.60;;
12784;SDS011;6456;42.680;23.260;2024-03-23T15:19:23;2.13;;;1.97;;
12784;SDS011;6456;42.680;23.260;2024-03-23T15:21:50;3.27;;;2.30;;
12784;SDS011;6456;42.680;23.260;2024-03-23T15:24:16;2.43;;;2.23;;
12784;SDS011;6456;42.680;23.260;2024-03-23T15:26:43;4.10;;;2.93;;
12784;SDS011;6456;42.680;23.260;2024-03-23T15:29:09;3.13;;;2.30;;
12784;SDS011;6456;42.680;23.260;2024-03-23T15:31:37;3.63;;;2.77;;
12784;SDS011;6456;42.680;23.260;2024-03-23T15:34:03;2.60;;;2.40;;
12784;SDS011;6456;42.680;23.260;2024-03-23T15:36:36;3.53;;;2.60;;
12784;SDS011;6456;42.680;23.260;2024-03-23T15:39:03;3.60;;;2.70;;
12784;SDS011;6456;42.680;23.260;2024-03-23T15:41:31;2.70;;;2.50;;